More Magic — 2DWJ4 — position and weather

sailwx.info

Track history (hours):
 
Tides and Currents Weather Stations Pressure Air Temp Water Temp Dewpoint Dewpoint Depression Visibility Wind Speed Wind Dir Waves Ship Positions

More Magic

Last reported at 2014-Aug-19 15:33 UTC. Time now 2014-Aug-20 18:38 UTC.
Position N 41°29' W 071°19'.

Length 20 m.

Type: Sailing vessel. MMSI: 235082545.

Date/timePositionNaut miles runAvg speedWind from/ knotsBaromVisibWave heightAir tempDewpointWater temp
2014-Aug-19 15:33N 41°29' W 071°19'0 0.0
2014-Aug-19 03:26N 41°29' W 071°20'0 0.0
2014-Aug-19 02:32N 41°29' W 071°20'0 0.0
2014-Aug-19 01:32N 41°29' W 071°20'0 0.0
2014-Aug-19 00:29N 41°29' W 071°20'0 0.0
2014-Aug-18 23:26N 41°29' W 071°20'2 1.8
2014-Aug-18 22:33N 41°28' W 071°21'5 5.3
2014-Aug-18 21:33N 41°26' W 071°15'7 7.2
2014-Aug-18 20:33N 41°27' W 071°05'8 7.7
2014-Aug-18 19:32N 41°29' W 070°55'40 1.6
2014-Aug-17 18:24N 41°17' W 070°05'0 0.0
2014-Aug-17 17:15N 41°17' W 070°05'0 0.0
2014-Aug-17 16:33N 41°17' W 070°05'0 0.0
2014-Aug-17 13:33N 41°17' W 070°05'0 0.0
2014-Aug-17 12:30N 41°17' W 070°05'0 0.0
2014-Aug-17 11:33N 41°17' W 070°05'0 0.0
2014-Aug-17 10:33N 41°17' W 070°05'0 0.0
2014-Aug-17 09:33N 41°17' W 070°05'0 0.0
2014-Aug-17 08:33N 41°17' W 070°05'0 0.0
2014-Aug-17 00:33N 41°17' W 070°05'0 0.0
2014-Aug-16 21:27N 41°17' W 070°05'0 0.0
2014-Aug-16 20:33N 41°17' W 070°05'0 0.0
2014-Aug-16 19:30N 41°17' W 070°05'0 0.0
2014-Aug-16 18:33N 41°17' W 070°05'20 0.7
2014-Aug-15 15:11N 41°23' W 070°30'0 0.0
2014-Aug-15 14:08N 41°23' W 070°30'0 0.0
2014-Aug-15 13:11N 41°23' W 070°30'0 0.0
2014-Aug-15 12:29N 41°23' W 070°30'0 0.0
2014-Aug-15 11:32N 41°23' W 070°30'0 0.0
2014-Aug-15 10:32N 41°23' W 070°30'0 0.0
2014-Aug-15 09:09N 41°23' W 070°30'0 0.0
2014-Aug-15 04:12N 41°23' W 070°30'0 0.0
2014-Aug-15 03:33N 41°23' W 070°30'0 0.0
2014-Aug-15 02:30N 41°23' W 070°30'0 0.0
2014-Aug-15 01:33N 41°23' W 070°30'19 1.1
2014-Aug-14 08:16N 41°26' W 070°55'15 1.2
2014-Aug-13 19:18N 41°24' W 071°15'6 8.0
2014-Aug-13 18:33N 41°21' W 071°22'8 7.7
2014-Aug-13 17:33N 41°17' W 071°31'6 6.2
2014-Aug-13 16:31N 41°11' W 071°35'0 0.0
2014-Aug-13 15:31N 41°11' W 071°35'0 0.0
2014-Aug-13 14:31N 41°11' W 071°35'0 0.0
2014-Aug-13 13:31N 41°11' W 071°35'0 0.0
2014-Aug-13 12:31N 41°11' W 071°35'0 0.0
2014-Aug-13 11:31N 41°11' W 071°35'0 0.0
2014-Aug-13 10:31N 41°11' W 071°35'0 0.0
2014-Aug-13 09:31N 41°11' W 071°35'0 0.0
2014-Aug-13 08:31N 41°11' W 071°35'0 0.0
2014-Aug-13 07:31N 41°11' W 071°35'0 0.0
2014-Aug-13 06:31N 41°11' W 071°35'0 0.0
2014-Aug-13 05:31N 41°11' W 071°35'0 0.0
2014-Aug-13 04:31N 41°11' W 071°35'0 0.0
2014-Aug-13 03:31N 41°11' W 071°35'0 0.0
2014-Aug-13 02:31N 41°11' W 071°35'0 0.0
2014-Aug-13 01:31N 41°11' W 071°35'0 0.0
2014-Aug-13 00:31N 41°11' W 071°35'0 0.0
2014-Aug-12 23:31N 41°11' W 071°35'0 0.0
2014-Aug-12 22:31N 41°11' W 071°35'0 0.0
2014-Aug-12 21:31N 41°11' W 071°35'1 1.1
2014-Aug-12 20:33N 41°12' W 071°36'6 5.8
2014-Aug-12 19:33N 41°17' W 071°31'8 7.6
2014-Aug-12 18:33N 41°24' W 071°26'8 7.7
2014-Aug-12 17:33N 41°29' W 071°19'0 0.1
2014-Aug-12 16:22N 41°29' W 071°19'0 0.0
2014-Aug-10 16:19N 41°29' W 071°19'0 0.0
2014-Aug-10 15:32N 41°29' W 071°19'0 0.2
2014-Aug-10 14:27N 41°29' W 071°19'0 0.0
2014-Aug-09 20:32N 41°29' W 071°19'0 0.0
2014-Aug-09 19:32N 41°29' W 071°19'1 1.2
2014-Aug-09 18:33N 41°29' W 071°21'2 1.3
2014-Aug-09 17:25N 41°29' W 071°23'4 5.0
2014-Aug-09 16:33N 41°26' W 071°18'  
Track history (hours):
 
Tides and Currents Weather Stations Pressure Air Temp Water Temp Dewpoint Dewpoint Depression Visibility Wind Speed Wind Dir Waves Ship Positions

More Magic

Last reported at 2014-Aug-19 15:33 UTC. Time now 2014-Aug-20 18:38 UTC.
Position N 41°29' W 071°19'.

Length 20 m.

Type: Sailing vessel. MMSI: 235082545.

Date/timePositionNaut miles runAvg speedWind from/ knotsBaromVisibWave heightAir tempDewpointWater temp
2014-Aug-19 15:33N 41°29' W 071°19'0 0.0
2014-Aug-19 03:26N 41°29' W 071°20'0 0.0
2014-Aug-19 02:32N 41°29' W 071°20'0 0.0
2014-Aug-19 01:32N 41°29' W 071°20'0 0.0
2014-Aug-19 00:29N 41°29' W 071°20'0 0.0
2014-Aug-18 23:26N 41°29' W 071°20'2 1.8
2014-Aug-18 22:33N 41°28' W 071°21'5 5.3
2014-Aug-18 21:33N 41°26' W 071°15'7 7.2
2014-Aug-18 20:33N 41°27' W 071°05'8 7.7
2014-Aug-18 19:32N 41°29' W 070°55'40 1.6
2014-Aug-17 18:24N 41°17' W 070°05'0 0.0
2014-Aug-17 17:15N 41°17' W 070°05'0 0.0
2014-Aug-17 16:33N 41°17' W 070°05'0 0.0
2014-Aug-17 13:33N 41°17' W 070°05'0 0.0
2014-Aug-17 12:30N 41°17' W 070°05'0 0.0
2014-Aug-17 11:33N 41°17' W 070°05'0 0.0
2014-Aug-17 10:33N 41°17' W 070°05'0 0.0
2014-Aug-17 09:33N 41°17' W 070°05'0 0.0
2014-Aug-17 08:33N 41°17' W 070°05'0 0.0
2014-Aug-17 00:33N 41°17' W 070°05'0 0.0
2014-Aug-16 21:27N 41°17' W 070°05'0 0.0
2014-Aug-16 20:33N 41°17' W 070°05'0 0.0
2014-Aug-16 19:30N 41°17' W 070°05'0 0.0
2014-Aug-16 18:33N 41°17' W 070°05'20 0.7
2014-Aug-15 15:11N 41°23' W 070°30'0 0.0
2014-Aug-15 14:08N 41°23' W 070°30'0 0.0
2014-Aug-15 13:11N 41°23' W 070°30'0 0.0
2014-Aug-15 12:29N 41°23' W 070°30'0 0.0
2014-Aug-15 11:32N 41°23' W 070°30'0 0.0
2014-Aug-15 10:32N 41°23' W 070°30'0 0.0
2014-Aug-15 09:09N 41°23' W 070°30'0 0.0
2014-Aug-15 04:12N 41°23' W 070°30'0 0.0
2014-Aug-15 03:33N 41°23' W 070°30'0 0.0
2014-Aug-15 02:30N 41°23' W 070°30'0 0.0
2014-Aug-15 01:33N 41°23' W 070°30'19 1.1
2014-Aug-14 08:16N 41°26' W 070°55'15 1.2
2014-Aug-13 19:18N 41°24' W 071°15'6 8.0
2014-Aug-13 18:33N 41°21' W 071°22'8 7.7
2014-Aug-13 17:33N 41°17' W 071°31'6 6.2
2014-Aug-13 16:31N 41°11' W 071°35'0 0.0
2014-Aug-13 15:31N 41°11' W 071°35'0 0.0
2014-Aug-13 14:31N 41°11' W 071°35'0 0.0
2014-Aug-13 13:31N 41°11' W 071°35'0 0.0
2014-Aug-13 12:31N 41°11' W 071°35'0 0.0
2014-Aug-13 11:31N 41°11' W 071°35'0 0.0
2014-Aug-13 10:31N 41°11' W 071°35'0 0.0
2014-Aug-13 09:31N 41°11' W 071°35'0 0.0
2014-Aug-13 08:31N 41°11' W 071°35'0 0.0
2014-Aug-13 07:31N 41°11' W 071°35'0 0.0
2014-Aug-13 06:31N 41°11' W 071°35'0 0.0
2014-Aug-13 05:31N 41°11' W 071°35'0 0.0
2014-Aug-13 04:31N 41°11' W 071°35'0 0.0
2014-Aug-13 03:31N 41°11' W 071°35'0 0.0
2014-Aug-13 02:31N 41°11' W 071°35'0 0.0
2014-Aug-13 01:31N 41°11' W 071°35'0 0.0
2014-Aug-13 00:31N 41°11' W 071°35'0 0.0
2014-Aug-12 23:31N 41°11' W 071°35'0 0.0
2014-Aug-12 22:31N 41°11' W 071°35'0 0.0
2014-Aug-12 21:31N 41°11' W 071°35'1 1.1
2014-Aug-12 20:33N 41°12' W 071°36'6 5.8
2014-Aug-12 19:33N 41°17' W 071°31'8 7.6
2014-Aug-12 18:33N 41°24' W 071°26'8 7.7
2014-Aug-12 17:33N 41°29' W 071°19'0 0.1
2014-Aug-12 16:22N 41°29' W 071°19'0 0.0
2014-Aug-10 16:19N 41°29' W 071°19'0 0.0
2014-Aug-10 15:32N 41°29' W 071°19'0 0.2
2014-Aug-10 14:27N 41°29' W 071°19'0 0.0
2014-Aug-09 20:32N 41°29' W 071°19'0 0.0
2014-Aug-09 19:32N 41°29' W 071°19'1 1.2
2014-Aug-09 18:33N 41°29' W 071°21'2 1.3
2014-Aug-09 17:25N 41°29' W 071°23'4 5.0
2014-Aug-09 16:33N 41°26' W 071°18'  

Dump ship's entire track history